sensor_id;sensor_type;location;lat;lon;timestamp;temperature;humidity
9095;DHT22;4583;49.796;9.902;2022-08-01T00:02:43;23.50;69.20
9095;DHT22;4583;49.796;9.902;2022-08-01T00:12:45;23.60;69.20
9095;DHT22;4583;49.796;9.902;2022-08-01T00:22:48;23.60;69.10
9095;DHT22;4583;49.796;9.902;2022-08-01T00:32:50;23.60;69.20
9095;DHT22;4583;49.796;9.902;2022-08-01T00:42:52;23.50;69.60
9095;DHT22;4583;49.796;9.902;2022-08-01T00:52:55;23.30;70.20
9095;DHT22;4583;49.796;9.902;2022-08-01T01:02:56;23.30;71.00
9095;DHT22;4583;49.796;9.902;2022-08-01T01:13:09;23.20;71.80
9095;DHT22;4583;49.796;9.902;2022-08-01T01:33:26;22.90;73.20
9095;DHT22;4583;49.796;9.902;2022-08-01T01:43:30;22.80;74.40
9095;DHT22;4583;49.796;9.902;2022-08-01T01:53:35;22.60;75.50
9095;DHT22;4583;49.796;9.902;2022-08-01T02:03:38;22.50;76.40
9095;DHT22;4583;49.796;9.902;2022-08-01T02:13:43;22.40;77.30
9095;DHT22;4583;49.796;9.902;2022-08-01T02:23:47;22.40;78.30
9095;DHT22;4583;49.796;9.902;2022-08-01T02:34:00;22.20;79.10
9095;DHT22;4583;49.796;9.902;2022-08-01T02:44:08;22.20;79.60
9095;DHT22;4583;49.796;9.902;2022-08-01T02:54:11;22.10;80.40
9095;DHT22;4583;49.796;9.902;2022-08-01T03:04:14;22.00;81.30
9095;DHT22;4583;49.796;9.902;2022-08-01T03:14:20;21.80;82.20
9095;DHT22;4583;49.796;9.902;2022-08-01T03:24:25;21.70;83.20
9095;DHT22;4583;49.796;9.902;2022-08-01T03:34:29;21.70;83.80
9095;DHT22;4583;49.796;9.902;2022-08-01T03:44:33;21.80;84.40
9095;DHT22;4583;49.796;9.902;2022-08-01T03:54:41;21.80;84.90
9095;DHT22;4583;49.796;9.902;2022-08-01T04:04:45;21.70;85.50
9095;DHT22;4583;49.796;9.902;2022-08-01T04:14:48;21.70;86.10
9095;DHT22;4583;49.796;9.902;2022-08-01T04:24:53;21.60;86.60
9095;DHT22;4583;49.796;9.902;2022-08-01T04:34:59;21.60;87.90
9095;DHT22;4583;49.796;9.902;2022-08-01T04:45:01;21.60;88.70
9095;DHT22;4583;49.796;9.902;2022-08-01T04:55:04;21.60;89.10
9095;DHT22;4583;49.796;9.902;2022-08-01T05:05:08;21.70;89.30
9095;DHT22;4583;49.796;9.902;2022-08-01T05:15:10;21.90;89.50
9095;DHT22;4583;49.796;9.902;2022-08-01T05:25:16;22.10;89.70
9095;DHT22;4583;49.796;9.902;2022-08-01T05:35:21;22.20;89.70
9095;DHT22;4583;49.796;9.902;2022-08-01T05:45:22;22.30;89.70
9095;DHT22;4583;49.796;9.902;2022-08-01T05:55:24;22.50;89.70
9095;DHT22;4583;49.796;9.902;2022-08-01T06:05:26;22.60;89.20
9095;DHT22;4583;49.796;9.902;2022-08-01T06:15:31;22.80;89.00
9095;DHT22;4583;49.796;9.902;2022-08-01T06:25:33;22.80;89.20
9095;DHT22;4583;49.796;9.902;2022-08-01T06:35:35;22.90;89.20
9095;DHT22;4583;49.796;9.902;2022-08-01T06:45:40;22.90;89.00
9095;DHT22;4583;49.796;9.902;2022-08-01T06:55:42;23.00;89.50
9095;DHT22;4583;49.796;9.902;2022-08-01T07:05:44;23.10;89.50
9095;DHT22;4583;49.796;9.902;2022-08-01T07:15:46;23.20;88.80
9095;DHT22;4583;49.796;9.902;2022-08-01T07:25:50;23.40;88.50
9095;DHT22;4583;49.796;9.902;2022-08-01T07:35:58;23.60;87.40
9095;DHT22;4583;49.796;9.902;2022-08-01T07:46:00;23.80;86.60
9095;DHT22;4583;49.796;9.902;2022-08-01T07:56:02;23.50;86.20
9095;DHT22;4583;49.796;9.902;2022-08-01T08:06:06;23.60;85.60
9095;DHT22;4583;49.796;9.902;2022-08-01T08:16:08;23.70;84.90
9095;DHT22;4583;49.796;9.902;2022-08-01T08:26:12;23.90;84.40
9095;DHT22;4583;49.796;9.902;2022-08-01T08:36:14;23.90;83.80
9095;DHT22;4583;49.796;9.902;2022-08-01T08:46:19;24.20;82.10
9095;DHT22;4583;49.796;9.902;2022-08-01T08:56:29;24.20;80.80
9095;DHT22;4583;49.796;9.902;2022-08-01T09:06:35;24.20;79.90
9095;DHT22;4583;49.796;9.902;2022-08-01T09:16:42;24.30;79.50
9095;DHT22;4583;49.796;9.902;2022-08-01T09:26:49;24.50;80.10
9095;DHT22;4583;49.796;9.902;2022-08-01T09:36:55;24.50;79.10
9095;DHT22;4583;49.796;9.902;2022-08-01T09:46:57;24.60;79.10
9095;DHT22;4583;49.796;9.902;2022-08-01T09:57:18;24.90;77.80
9095;DHT22;4583;49.796;9.902;2022-08-01T10:07:19;24.90;77.30
9095;DHT22;4583;49.796;9.902;2022-08-01T10:17:47;25.30;76.40
9095;DHT22;4583;49.796;9.902;2022-08-01T10:27:59;25.40;74.40
9095;DHT22;4583;49.796;9.902;2022-08-01T10:38:03;25.40;74.20
9095;DHT22;4583;49.796;9.902;2022-08-01T10:58:38;25.60;72.40
9095;DHT22;4583;49.796;9.902;2022-08-01T11:08:51;26.00;70.70
9095;DHT22;4583;49.796;9.902;2022-08-01T11:18:54;26.10;68.90
9095;DHT22;4583;49.796;9.902;2022-08-01T11:29:14;26.10;68.00
9095;DHT22;4583;49.796;9.902;2022-08-01T11:39:22;26.50;66.60
9095;DHT22;4583;49.796;9.902;2022-08-01T11:59:41;26.40;63.80
9095;DHT22;4583;49.796;9.902;2022-08-01T12:10:08;26.70;64.20
9095;DHT22;4583;49.796;9.902;2022-08-01T12:20:12;27.30;62.00
9095;DHT22;4583;49.796;9.902;2022-08-01T12:30:17;27.60;61.40
9095;DHT22;4583;49.796;9.902;2022-08-01T12:50:24;27.00;60.30
9095;DHT22;4583;49.796;9.902;2022-08-01T13:00:26;27.00;59.80
9095;DHT22;4583;49.796;9.902;2022-08-01T13:10:30;26.80;60.30
9095;DHT22;4583;49.796;9.902;2022-08-01T13:20:33;26.70;60.70
9095;DHT22;4583;49.796;9.902;2022-08-01T13:30:35;26.60;60.90
9095;DHT22;4583;49.796;9.902;2022-08-01T13:40:37;26.60;60.20
9095;DHT22;4583;49.796;9.902;2022-08-01T13:50:38;26.70;60.40
9095;DHT22;4583;49.796;9.902;2022-08-01T14:00:41;26.70;60.50
9095;DHT22;4583;49.796;9.902;2022-08-01T14:10:43;26.90;59.90
9095;DHT22;4583;49.796;9.902;2022-08-01T14:20:46;27.20;58.80
9095;DHT22;4583;49.796;9.902;2022-08-01T14:30:51;27.30;58.70
9095;DHT22;4583;49.796;9.902;2022-08-01T14:40:52;27.50;57.50
9095;DHT22;4583;49.796;9.902;2022-08-01T14:50:55;27.60;56.00
9095;DHT22;4583;49.796;9.902;2022-08-01T15:00:56;27.60;54.90
9095;DHT22;4583;49.796;9.902;2022-08-01T15:11:00;27.70;51.50
9095;DHT22;4583;49.796;9.902;2022-08-01T15:21:03;28.00;52.40
9095;DHT22;4583;49.796;9.902;2022-08-01T15:31:04;28.00;53.60
9095;DHT22;4583;49.796;9.902;2022-08-01T15:41:06;27.90;53.30
9095;DHT22;4583;49.796;9.902;2022-08-01T15:51:08;27.80;53.00
9095;DHT22;4583;49.796;9.902;2022-08-01T16:01:10;27.60;52.70
9095;DHT22;4583;49.796;9.902;2022-08-01T16:11:12;27.60;53.10
9095;DHT22;4583;49.796;9.902;2022-08-01T16:21:14;27.70;53.40
9095;DHT22;4583;49.796;9.902;2022-08-01T16:31:16;27.60;53.60
9095;DHT22;4583;49.796;9.902;2022-08-01T16:41:23;27.60;53.70
9095;DHT22;4583;49.796;9.902;2022-08-01T16:51:25;27.50;53.60
9095;DHT22;4583;49.796;9.902;2022-08-01T17:01:27;27.50;53.90
9095;DHT22;4583;49.796;9.902;2022-08-01T17:11:50;27.50;54.00
9095;DHT22;4583;49.796;9.902;2022-08-01T17:21:51;27.50;53.90
9095;DHT22;4583;49.796;9.902;2022-08-01T17:31:53;27.40;54.10
9095;DHT22;4583;49.796;9.902;2022-08-01T17:41:55;27.20;54.30
9095;DHT22;4583;49.796;9.902;2022-08-01T17:51:57;27.10;54.50
9095;DHT22;4583;49.796;9.902;2022-08-01T18:01:59;26.90;54.80
9095;DHT22;4583;49.796;9.902;2022-08-01T18:12:01;26.80;55.30
9095;DHT22;4583;49.796;9.902;2022-08-01T18:22:09;26.60;55.50
9095;DHT22;4583;49.796;9.902;2022-08-01T18:32:33;26.40;56.00
9095;DHT22;4583;49.796;9.902;2022-08-01T18:42:34;26.40;57.00
9095;DHT22;4583;49.796;9.902;2022-08-01T18:52:36;26.20;57.80
9095;DHT22;4583;49.796;9.902;2022-08-01T19:02:39;26.20;58.40
9095;DHT22;4583;49.796;9.902;2022-08-01T19:12:42;26.10;59.10
9095;DHT22;4583;49.796;9.902;2022-08-01T19:22:46;25.90;60.00
9095;DHT22;4583;49.796;9.902;2022-08-01T19:32:49;25.80;60.90
9095;DHT22;4583;49.796;9.902;2022-08-01T19:42:53;25.70;61.50
9095;DHT22;4583;49.796;9.902;2022-08-01T19:52:55;25.60;62.20
9095;DHT22;4583;49.796;9.902;2022-08-01T20:02:58;25.50;63.60
9095;DHT22;4583;49.796;9.902;2022-08-01T20:13:01;25.40;63.80
9095;DHT22;4583;49.796;9.902;2022-08-01T20:23:08;25.70;64.50
9095;DHT22;4583;49.796;9.902;2022-08-01T20:33:11;25.20;65.20
9095;DHT22;4583;49.796;9.902;2022-08-01T20:43:13;25.00;65.20
9095;DHT22;4583;49.796;9.902;2022-08-01T20:53:16;24.90;65.80
9095;DHT22;4583;49.796;9.902;2022-08-01T21:03:22;24.70;66.60
9095;DHT22;4583;49.796;9.902;2022-08-01T21:13:44;24.50;67.30
9095;DHT22;4583;49.796;9.902;2022-08-01T21:23:58;24.20;68.20
9095;DHT22;4583;49.796;9.902;2022-08-01T21:34:01;24.00;69.00
9095;DHT22;4583;49.796;9.902;2022-08-01T21:44:09;23.80;69.30
9095;DHT22;4583;49.796;9.902;2022-08-01T21:54:51;23.90;69.00
9095;DHT22;4583;49.796;9.902;2022-08-01T22:05:06;23.80;69.30
9095;DHT22;4583;49.796;9.902;2022-08-01T22:15:10;23.60;70.20
9095;DHT22;4583;49.796;9.902;2022-08-01T22:25:13;23.60;71.00
9095;DHT22;4583;49.796;9.902;2022-08-01T22:35:16;23.50;71.60
9095;DHT22;4583;49.796;9.902;2022-08-01T22:55:47;23.40;72.10
9095;DHT22;4583;49.796;9.902;2022-08-01T23:06:02;23.30;72.50
9095;DHT22;4583;49.796;9.902;2022-08-01T23:16:04;23.30;72.90
9095;DHT22;4583;49.796;9.902;2022-08-01T23:26:08;23.20;73.40
9095;DHT22;4583;49.796;9.902;2022-08-01T23:36:15;23.20;73.90
9095;DHT22;4583;49.796;9.902;2022-08-01T23:46:18;23.00;74.30
9095;DHT22;4583;49.796;9.902;2022-08-01T23:56:20;22.90;75.20
